Time;durP1;ratioP1;P1;durP2;ratioP2;P2;SDS_P1;SDS_P2;PMS_P1;PMS_P2;Temp;Humidity;BMP_temperature;BMP_pressure;BME280_temperature;BME280_humidity;BME280_pressure;Samples;Min_cycle;Max_cycle;Signal;HPM_P1;HPM_P2
2022/09/03 00:01:18;;;;;;;4.40;3.13;;;18.20;99.90;;;;;;4998047;28;20203;-89
2022/09/03 00:03:54;;;;;;;3.20;2.90;;;18.30;99.90;;;;;;4998288;28;20572;-89
2022/09/03 00:06:29;;;;;;;6.05;3.17;;;18.30;99.90;;;;;;4998217;28;20206;-89
2022/09/03 00:09:26;;;;;;;3.70;3.03;;;18.30;99.90;;;;;;4998044;28;20633;-89
2022/09/03 00:12:19;;;;;;;5.53;2.88;;;18.40;99.90;;;;;;4987144;28;20234;-89
2022/09/03 00:14:51;;;;;;;4.03;3.00;;;18.30;99.90;;;;;;4997761;28;20201;-89
2022/09/03 00:17:22;;;;;;;3.40;3.10;;;18.30;99.90;;;;;;4998091;28;20179;-89
2022/09/03 00:20:04;;;;;;;3.38;3.03;;;18.30;99.90;;;;;;4998072;28;20200;-88
2022/09/03 00:22:45;;;;;;;3.72;2.85;;;18.20;99.90;;;;;;4997578;28;20202;-89
2022/09/03 00:25:17;;;;;;;4.72;3.00;;;18.20;99.90;;;;;;4998400;28;20198;-89
2022/09/03 00:27:49;;;;;;;3.22;2.92;;;18.20;99.90;;;;;;4997421;28;20192;-89
2022/09/03 00:30:16;;;;;;;7.47;3.35;;;18.20;99.90;;;;;;4997513;28;20187;-89
2022/09/03 00:32:55;;;;;;;3.28;2.97;;;18.20;99.90;;;;;;4997064;28;20206;-89
2022/09/03 00:35:40;;;;;;;3.03;2.83;;;18.20;99.90;;;;;;4997861;28;20240;-89
2022/09/03 00:38:07;;;;;;;3.17;2.92;;;18.30;99.90;;;;;;4996930;28;20190;-89
2022/09/03 00:40:54;;;;;;;4.05;2.90;;;18.20;99.90;;;;;;4996585;28;20202;-90
2022/09/03 00:44:01;;;;;;;4.55;3.30;;;18.20;99.90;;;;;;4997447;28;20179;-89
2022/09/03 00:46:50;;;;;;;3.63;3.20;;;18.10;99.90;;;;;;4986823;28;20218;-89
2022/09/03 00:49:53;;;;;;;3.47;2.90;;;17.90;99.90;;;;;;4997428;28;20186;-89
2022/09/03 00:52:38;;;;;;;5.10;2.97;;;17.90;99.90;;;;;;5001942;28;20214;-88
2022/09/03 00:55:19;;;;;;;3.28;2.95;;;17.90;99.90;;;;;;4997393;28;20205;-89
2022/09/03 00:58:00;;;;;;;3.30;2.90;;;17.90;99.90;;;;;;4996097;28;20183;-89
2022/09/03 01:00:26;;;;;;;3.28;3.00;;;17.90;99.90;;;;;;4997113;28;20246;-89
2022/09/03 01:03:32;;;;;;;3.83;2.90;;;18.00;99.90;;;;;;4997015;28;20179;-89
2022/09/03 01:06:07;;;;;;;4.53;3.10;;;17.90;99.90;;;;;;4996999;28;20206;-88
2022/09/03 01:09:00;;;;;;;2.95;2.70;;;17.90;99.90;;;;;;4996662;28;20303;-89
2022/09/03 01:11:32;;;;;;;3.33;3.03;;;17.90;99.90;;;;;;5000168;28;20302;-89
2022/09/03 01:14:17;;;;;;;5.00;3.30;;;17.90;99.90;;;;;;4996560;28;20262;-89
2022/09/03 01:17:21;;;;;;;4.03;3.22;;;17.90;99.90;;;;;;4996704;28;20187;-89
2022/09/03 01:19:51;;;;;;;3.78;3.05;;;17.90;99.90;;;;;;4997565;28;20206;-89
2022/09/03 01:23:13;;;;;;;5.25;3.67;;;17.80;99.90;;;;;;4996541;28;20579;-89
2022/09/03 01:25:54;;;;;;;3.60;3.13;;;17.80;99.90;;;;;;4937235;29;20181;-89
2022/09/03 01:28:41;;;;;;;4.00;3.70;;;17.80;99.90;;;;;;4919411;29;20209;-89
2022/09/03 01:31:15;;;;;;;3.17;2.80;;;17.80;99.90;;;;;;4975837;28;20219;-89
2022/09/03 01:33:55;;;;;;;3.03;2.83;;;17.80;99.90;;;;;;4986368;28;20181;-89
2022/09/03 01:37:11;;;;;;;3.45;3.03;;;17.80;99.90;;;;;;4997023;28;20225;-89
2022/09/03 01:39:48;;;;;;;2.95;2.63;;;17.80;99.90;;;;;;4972236;28;20310;-89
2022/09/03 01:42:35;;;;;;;5.50;2.70;;;17.70;99.90;;;;;;5006757;28;20221;-89
2022/09/03 01:45:23;;;;;;;2.88;2.55;;;17.70;99.90;;;;;;4996500;28;20310;-89
2022/09/03 01:48:29;;;;;;;3.17;2.92;;;17.70;99.90;;;;;;4996183;28;20186;-89
2022/09/03 01:51:09;;;;;;;3.72;2.95;;;17.70;99.90;;;;;;4953592;28;20210;-89
2022/09/03 01:54:30;;;;;;;3.35;3.05;;;17.60;99.90;;;;;;4996016;28;20183;-89
2022/09/03 01:57:36;;;;;;;3.67;2.72;;;17.70;99.90;;;;;;4918019;29;20197;-89
2022/09/03 02:00:12;;;;;;;3.38;3.10;;;17.70;99.90;;;;;;4992982;28;20258;-89
2022/09/03 02:02:41;;;;;;;3.05;2.85;;;17.60;99.90;;;;;;5012565;28;20194;-90
2022/09/03 02:05:11;;;;;;;4.05;3.20;;;17.60;99.90;;;;;;4996417;28;20250;-89
2022/09/03 02:07:42;;;;;;;3.65;3.00;;;17.60;99.90;;;;;;4994986;28;20221;-89
2022/09/03 02:10:16;;;;;;;3.20;2.90;;;17.60;99.90;;;;;;4995521;28;20191;-89
2022/09/03 02:12:50;;;;;;;3.28;2.97;;;17.50;99.90;;;;;;4995875;28;20190;-89
2022/09/03 02:15:20;;;;;;;3.78;3.45;;;17.50;99.90;;;;;;4995991;28;20182;-89
2022/09/03 02:17:48;;;;;;;3.28;2.88;;;17.50;99.90;;;;;;4996290;28;20186;-89
2022/09/03 02:20:22;;;;;;;3.33;3.03;;;17.50;99.90;;;;;;4995344;28;20237;-89
2022/09/03 02:22:49;;;;;;;4.88;3.60;;;17.50;99.90;;;;;;4995960;28;20305;-88
2022/09/03 02:25:19;;;;;;;4.05;2.92;;;17.50;99.90;;;;;;4995726;28;20281;-89
2022/09/03 02:27:48;;;;;;;5.18;3.20;;;17.40;99.90;;;;;;4995851;28;20202;-89
2022/09/03 02:30:14;;;;;;;3.28;2.97;;;17.30;99.90;;;;;;4995881;28;20190;-89
2022/09/03 02:32:40;;;;;;;4.47;3.20;;;17.30;99.90;;;;;;4996197;28;20297;-89
2022/09/03 02:35:06;;;;;;;3.67;3.38;;;17.20;99.90;;;;;;4995672;28;20187;-89
2022/09/03 02:37:32;;;;;;;3.47;2.80;;;17.20;99.90;;;;;;4996211;28;20183;-89
2022/09/03 02:39:58;;;;;;;3.53;3.20;;;17.20;99.90;;;;;;4997186;28;20214;-89
2022/09/03 02:42:24;;;;;;;3.37;3.07;;;17.10;99.90;;;;;;4996037;28;20195;-88
2022/09/03 02:44:56;;;;;;;3.90;3.20;;;17.10;99.90;;;;;;4999660;28;20182;-89
2022/09/03 02:47:27;;;;;;;3.43;3.13;;;17.00;99.90;;;;;;4999442;28;20186;-89
2022/09/03 02:49:53;;;;;;;3.90;3.57;;;17.00;99.90;;;;;;4999398;28;20182;-89
2022/09/03 02:52:19;;;;;;;6.03;3.43;;;16.90;99.90;;;;;;4999740;28;20226;-89
2022/09/03 02:54:45;;;;;;;3.87;3.57;;;16.80;99.90;;;;;;4999913;28;20191;-89
2022/09/03 02:57:15;;;;;;;3.20;2.90;;;16.80;99.90;;;;;;4999746;28;20274;-89
2022/09/03 02:59:43;;;;;;;3.73;3.27;;;16.70;99.90;;;;;;4999881;28;20245;-88
2022/09/03 03:02:10;;;;;;;3.77;3.47;;;16.70;99.90;;;;;;5000187;28;20202;-89
2022/09/03 03:04:37;;;;;;;3.50;3.20;;;16.70;99.90;;;;;;5000511;28;20180;-89
2022/09/03 03:07:03;;;;;;;3.65;3.22;;;16.70;99.90;;;;;;4999923;28;20242;-89
2022/09/03 03:09:29;;;;;;;3.33;3.10;;;16.70;99.90;;;;;;5000287;28;20259;-89
2022/09/03 03:11:55;;;;;;;3.90;3.50;;;16.70;99.90;;;;;;5000146;28;20222;-89
2022/09/03 03:14:22;;;;;;;4.10;3.40;;;16.80;99.90;;;;;;4999688;28;20184;-89
2022/09/03 03:16:49;;;;;;;4.57;3.53;;;16.80;99.90;;;;;;4998829;28;20198;-89
2022/09/03 03:19:15;;;;;;;4.93;3.40;;;16.80;99.90;;;;;;4998836;28;20211;-89
2022/09/03 03:21:41;;;;;;;4.00;3.60;;;16.70;99.90;;;;;;4998293;28;20207;-89
2022/09/03 03:24:07;;;;;;;4.83;3.50;;;16.70;99.90;;;;;;4999143;28;20195;-89
2022/09/03 03:26:33;;;;;;;5.67;4.20;;;16.70;99.90;;;;;;4998515;28;20183;-89
2022/09/03 03:29:03;;;;;;;4.63;3.67;;;16.70;99.90;;;;;;4998412;28;20192;-90
2022/09/03 03:31:30;;;;;;;4.40;4.00;;;16.60;99.90;;;;;;4998437;28;20203;-89
2022/09/03 03:34:02;;;;;;;5.17;3.90;;;16.60;99.90;;;;;;4998174;28;20183;-89
2022/09/03 03:36:31;;;;;;;4.53;3.60;;;16.70;99.90;;;;;;4988189;28;20198;-88
2022/09/03 03:38:59;;;;;;;5.33;4.07;;;16.80;99.90;;;;;;4998675;28;20317;-89
2022/09/03 03:41:27;;;;;;;3.97;3.63;;;16.80;99.90;;;;;;5014953;28;20261;-89
2022/09/03 03:43:55;;;;;;;3.80;3.50;;;16.90;99.90;;;;;;5014815;28;20190;-90
2022/09/03 03:46:22;;;;;;;3.60;3.33;;;16.90;99.90;;;;;;4998703;28;20187;-89
2022/09/03 03:48:49;;;;;;;5.20;3.63;;;16.90;99.90;;;;;;4998256;28;20183;-89
2022/09/03 03:51:16;;;;;;;3.57;3.20;;;17.00;99.90;;;;;;4998045;28;20203;-89
2022/09/03 03:53:42;;;;;;;3.60;3.30;;;17.00;99.90;;;;;;4998106;28;20188;-89
2022/09/03 03:56:12;;;;;;;2.73;2.53;;;17.00;99.90;;;;;;4998369;28;20190;-89
2022/09/03 03:58:42;;;;;;;3.27;2.97;;;17.00;99.90;;;;;;4997480;28;20219;-89
2022/09/03 04:01:13;;;;;;;5.13;3.40;;;17.00;99.90;;;;;;4997435;28;20227;-89
2022/09/03 04:03:39;;;;;;;4.20;3.80;;;16.90;99.90;;;;;;4997896;28;20189;-89
2022/09/03 04:06:06;;;;;;;4.90;3.90;;;16.80;99.90;;;;;;4998097;28;20188;-89
2022/09/03 04:08:38;;;;;;;3.80;3.50;;;16.80;99.90;;;;;;4997610;28;20199;-89
2022/09/03 04:11:06;;;;;;;4.67;3.27;;;16.70;99.90;;;;;;5011628;28;20234;-89
2022/09/03 04:13:35;;;;;;;4.13;3.83;;;16.60;99.90;;;;;;5018260;28;20269;-89
2022/09/03 04:16:06;;;;;;;4.17;3.43;;;16.50;99.90;;;;;;5000585;28;20211;-89
2022/09/03 04:18:34;;;;;;;3.63;3.17;;;16.50;99.90;;;;;;4997277;28;20749;-89
2022/09/03 04:21:22;;;;;;;3.03;2.83;;;16.50;99.90;;;;;;4997160;28;20206;-89
2022/09/03 04:23:49;;;;;;;3.50;3.20;;;16.60;99.90;;;;;;4997877;28;20179;-89
2022/09/03 04:26:18;;;;;;;3.53;3.10;;;16.60;99.90;;;;;;4997966;28;20274;-89
2022/09/03 04:28:44;;;;;;;4.77;3.40;;;16.60;99.90;;;;;;4997484;28;20186;-89
2022/09/03 04:31:13;;;;;;;3.40;3.10;;;16.60;99.90;;;;;;4997967;28;20234;-89
2022/09/03 04:33:39;;;;;;;4.83;3.40;;;16.50;99.90;;;;;;4997494;28;20187;-89
2022/09/03 04:36:15;;;;;;;3.30;3.10;;;16.50;99.90;;;;;;4997076;28;20205;-89
2022/09/03 04:38:43;;;;;;;3.37;3.17;;;16.40;99.90;;;;;;4997413;28;20206;-89
2022/09/03 04:41:11;;;;;;;3.73;3.43;;;16.30;99.90;;;;;;5012019;28;20268;-89
2022/09/03 04:43:37;;;;;;;3.93;3.30;;;16.20;99.90;;;;;;5005082;28;20172;-88
2022/09/03 04:46:07;;;;;;;4.10;3.47;;;16.20;99.90;;;;;;5012123;28;20179;-89
2022/09/03 04:48:35;;;;;;;5.13;3.80;;;16.30;99.90;;;;;;5010954;28;20630;-88
2022/09/03 04:51:04;;;;;;;3.23;2.93;;;16.30;99.90;;;;;;4996640;28;20200;-89
2022/09/03 04:53:35;;;;;;;3.93;3.13;;;16.40;99.90;;;;;;4996450;28;20184;-89
2022/09/03 04:56:02;;;;;;;4.10;3.40;;;16.40;99.90;;;;;;4997385;28;20194;-89
2022/09/03 04:58:28;;;;;;;3.27;2.90;;;16.50;99.90;;;;;;4996568;28;20211;-88
2022/09/03 05:00:55;;;;;;;3.60;3.30;;;16.50;99.90;;;;;;4996252;28;20271;-89
2022/09/03 05:03:21;;;;;;;3.63;3.33;;;16.50;99.90;;;;;;4996730;28;20184;-89
2022/09/03 05:05:56;;;;;;;3.87;3.10;;;16.50;99.90;;;;;;4996555;28;20183;-89
2022/09/03 05:08:25;;;;;;;3.97;3.17;;;16.60;99.90;;;;;;4996454;28;20182;-89
2022/09/03 05:10:59;;;;;;;4.10;3.70;;;16.60;99.90;;;;;;4996812;28;20206;-89
2022/09/03 05:13:25;;;;;;;4.93;3.40;;;16.50;99.90;;;;;;4996727;28;20270;-89
2022/09/03 05:15:51;;;;;;;3.50;3.20;;;16.50;99.90;;;;;;4997141;28;20193;-88
2022/09/03 05:18:17;;;;;;;4.83;3.40;;;16.50;99.90;;;;;;4996583;28;20175;-89
2022/09/03 05:20:43;;;;;;;3.60;3.30;;;16.50;99.90;;;;;;4996745;28;20233;-89
2022/09/03 05:23:09;;;;;;;5.20;3.20;;;16.50;99.90;;;;;;4996648;28;20233;-89
2022/09/03 05:25:36;;;;;;;3.70;3.40;;;16.50;99.90;;;;;;4996774;28;20179;-89
2022/09/03 05:28:04;;;;;;;5.67;3.73;;;16.50;99.90;;;;;;4996174;28;20175;-89
2022/09/03 05:30:30;;;;;;;6.33;4.07;;;16.50;99.90;;;;;;4996709;28;20206;-89
2022/09/03 05:32:55;;;;;;;3.57;3.27;;;16.50;99.90;;;;;;4993383;28;20304;-89
2022/09/03 05:35:21;;;;;;;4.87;3.43;;;16.50;99.90;;;;;;4993515;28;20196;-89
2022/09/03 05:37:47;;;;;;;3.83;3.53;;;16.60;99.90;;;;;;4981662;28;20184;-89
2022/09/03 05:40:13;;;;;;;4.20;3.77;;;16.60;99.90;;;;;;5020207;28;20233;-89
2022/09/03 05:42:39;;;;;;;3.30;3.00;;;16.60;99.90;;;;;;5001396;28;20230;-89
2022/09/03 05:45:09;;;;;;;4.83;3.87;;;16.60;99.90;;;;;;4996300;28;20191;-89
2022/09/03 05:47:40;;;;;;;3.80;3.33;;;16.70;99.90;;;;;;4992007;28;20183;-89
2022/09/03 05:50:09;;;;;;;4.87;3.67;;;16.70;99.90;;;;;;4976490;28;20187;-89
2022/09/03 05:52:37;;;;;;;4.40;3.63;;;16.80;99.90;;;;;;5011883;28;20199;-89
2022/09/03 05:55:03;;;;;;;4.77;4.00;;;16.80;99.90;;;;;;4994786;28;20219;-89
2022/09/03 05:57:29;;;;;;;7.77;3.47;;;16.80;99.90;;;;;;4998421;28;20179;-89
2022/09/03 05:59:56;;;;;;;6.80;4.10;;;16.80;99.90;;;;;;4981402;28;20211;-89
2022/09/03 06:02:23;;;;;;;4.17;3.40;;;16.80;99.90;;;;;;4992153;28;20206;-90
2022/09/03 06:04:50;;;;;;;5.80;3.77;;;16.80;99.90;;;;;;5000455;28;20180;-90
2022/09/03 06:07:16;;;;;;;5.97;3.43;;;16.80;99.90;;;;;;4989098;28;20274;-90
2022/09/03 06:09:42;;;;;;;8.07;4.50;;;16.90;99.90;;;;;;5004649;28;20190;-90
2022/09/03 06:12:08;;;;;;;5.63;3.97;;;16.90;99.90;;;;;;4978183;28;20214;-90
2022/09/03 06:14:33;;;;;;;5.20;3.78;;;16.90;99.90;;;;;;4993518;28;20270;-89
2022/09/03 06:16:59;;;;;;;9.00;3.83;;;16.90;99.90;;;;;;4993217;28;20179;-89
2022/09/03 06:19:26;;;;;;;6.97;4.43;;;17.00;99.90;;;;;;4997841;28;20211;-90
2022/09/03 06:21:52;;;;;;;4.97;4.07;;;17.00;99.90;;;;;;4997190;28;20291;-89
2022/09/03 06:24:22;;;;;;;4.43;4.03;;;17.10;99.90;;;;;;4997137;28;20270;-90
2022/09/03 06:26:49;;;;;;;4.03;3.70;;;17.10;99.90;;;;;;4997127;28;20277;-90
2022/09/03 06:29:15;;;;;;;6.90;4.07;;;17.10;99.90;;;;;;4997597;28;20191;-90
2022/09/03 06:31:41;;;;;;;4.55;3.92;;;17.10;99.90;;;;;;4996733;28;20199;-90
2022/09/03 06:34:07;;;;;;;6.13;4.10;;;17.10;99.90;;;;;;4997469;28;20265;-90
2022/09/03 06:36:33;;;;;;;6.43;4.07;;;17.10;99.90;;;;;;4997120;28;20318;-90
2022/09/03 06:38:59;;;;;;;6.87;3.70;;;17.10;99.90;;;;;;4997758;28;20277;-90
2022/09/03 06:41:28;;;;;;;7.13;3.70;;;17.20;99.90;;;;;;5012308;28;20216;-90
2022/09/03 06:44:10;;;;;;;6.03;3.43;;;17.20;99.90;;;;;;4997835;28;20188;-90
2022/09/03 06:46:52;;;;;;;4.30;3.90;;;17.30;99.90;;;;;;5002153;28;20238;-90
2022/09/03 06:49:24;;;;;;;4.30;3.65;;;17.30;99.90;;;;;;4998640;28;20191;-90
2022/09/03 06:51:50;;;;;;;3.88;3.55;;;17.40;99.90;;;;;;4978526;28;20200;-90
2022/09/03 06:54:16;;;;;;;5.07;3.30;;;17.40;99.90;;;;;;4979096;28;20184;-90
2022/09/03 06:56:42;;;;;;;4.05;3.67;;;17.50;99.90;;;;;;4978432;28;20266;-90
2022/09/03 06:59:13;;;;;;;4.18;3.53;;;17.50;99.90;;;;;;4978085;28;20215;-90
2022/09/03 07:01:40;;;;;;;3.67;3.37;;;17.40;99.90;;;;;;4977323;28;20207;-90
2022/09/03 07:04:07;;;;;;;4.15;3.40;;;17.50;99.90;;;;;;4980467;28;20269;-89
2022/09/03 07:06:38;;;;;;;3.72;3.42;;;17.50;99.90;;;;;;4996567;28;20287;-89
2022/09/03 07:09:06;;;;;;;3.75;3.45;;;17.60;99.90;;;;;;4996776;28;20195;-90
2022/09/03 07:11:34;;;;;;;3.65;3.28;;;17.60;99.90;;;;;;4996069;28;20218;-90
2022/09/03 07:14:02;;;;;;;5.40;3.40;;;17.60;99.90;;;;;;4996694;28;20203;-90
2022/09/03 07:16:35;;;;;;;4.50;3.40;;;17.60;99.90;;;;;;4996577;28;20175;-89
2022/09/03 07:19:03;;;;;;;5.10;3.60;;;17.60;99.90;;;;;;4994002;28;20223;-89
2022/09/03 07:21:40;;;;;;;3.83;3.53;;;17.60;99.90;;;;;;5011294;28;20286;-89
2022/09/03 07:24:09;;;;;;;8.57;5.05;;;17.60;99.90;;;;;;4991490;28;20180;-89
2022/09/03 07:26:38;;;;;;;6.85;4.72;;;17.70;99.90;;;;;;5012656;28;20234;-90
2022/09/03 07:29:06;;;;;;;4.65;3.42;;;17.80;99.90;;;;;;4995524;28;20187;-89
2022/09/03 07:31:38;;;;;;;4.15;3.67;;;17.90;99.90;;;;;;4996472;28;20191;-89
2022/09/03 07:34:07;;;;;;;4.45;3.60;;;17.90;99.90;;;;;;4995426;28;20270;-89
2022/09/03 07:36:42;;;;;;;5.85;3.88;;;18.00;99.90;;;;;;4995685;28;20187;-89
2022/09/03 07:39:10;;;;;;;5.43;3.50;;;18.10;99.90;;;;;;4992615;28;20207;-89
2022/09/03 07:41:36;;;;;;;4.97;3.53;;;18.20;99.90;;;;;;4983878;28;20211;-89
2022/09/03 07:44:05;;;;;;;5.40;3.85;;;18.40;99.90;;;;;;5012526;28;20187;-89
2022/09/03 07:46:35;;;;;;;4.25;3.88;;;18.60;99.90;;;;;;5037383;28;20204;-85
2022/09/03 07:49:01;;;;;;;4.63;4.22;;;19.00;99.90;;;;;;4996589;28;20175;-87
2022/09/03 07:51:30;;;;;;;4.55;4.15;;;19.20;99.90;;;;;;4998854;28;20220;-87
2022/09/03 07:53:58;;;;;;;3.88;3.58;;;19.50;99.90;;;;;;5003850;28;20191;-87
2022/09/03 07:56:25;;;;;;;4.85;3.92;;;19.70;99.90;;;;;;4978329;28;20172;-87
2022/09/03 07:58:54;;;;;;;4.07;3.42;;;19.90;99.90;;;;;;5027291;28;20195;-89
2022/09/03 08:01:24;;;;;;;4.90;3.67;;;20.00;99.90;;;;;;5012274;28;20234;-87
2022/09/03 08:03:52;;;;;;;4.47;3.65;;;20.20;99.90;;;;;;4987633;28;20530;-87
2022/09/03 08:06:31;;;;;;;4.20;3.70;;;20.40;99.90;;;;;;4992261;28;20184;-87
2022/09/03 08:09:02;;;;;;;3.85;3.53;;;20.50;99.90;;;;;;5010113;28;20175;-87
2022/09/03 08:11:28;;;;;;;5.78;3.75;;;20.70;99.90;;;;;;5007508;28;20212;-87
2022/09/03 08:14:06;;;;;;;3.45;3.15;;;20.80;99.90;;;;;;4985806;28;20184;-87
2022/09/03 08:16:46;;;;;;;4.70;3.50;;;20.90;99.90;;;;;;5005048;28;20191;-89
2022/09/03 08:19:13;;;;;;;4.22;3.42;;;21.10;99.90;;;;;;4997449;28;20272;-89
2022/09/03 08:21:43;;;;;;;5.40;3.40;;;21.30;99.90;;;;;;4990039;28;20231;-89
2022/09/03 08:24:14;;;;;;;5.07;3.60;;;21.60;99.90;;;;;;4987844;28;20180;-90
2022/09/03 08:26:44;;;;;;;4.25;3.10;;;21.70;99.90;;;;;;5006535;28;20180;-88
2022/09/03 08:29:11;;;;;;;3.10;2.90;;;21.50;99.90;;;;;;4999520;28;20190;-89
2022/09/03 08:31:37;;;;;;;3.08;2.88;;;21.30;99.90;;;;;;5000947;28;20203;-90
2022/09/03 08:34:06;;;;;;;5.80;3.45;;;21.30;99.90;;;;;;4993147;28;20213;-89
2022/09/03 08:36:34;;;;;;;3.60;3.30;;;21.50;99.90;;;;;;4991858;28;20257;-90
2022/09/03 08:39:06;;;;;;;3.75;3.38;;;21.60;99.90;;;;;;5002397;28;20207;-87
2022/09/03 08:41:59;;;;;;;3.28;2.97;;;21.70;99.90;;;;;;5011202;28;20211;-86
2022/09/03 08:44:39;;;;;;;3.20;2.90;;;21.80;99.90;;;;;;5007403;28;20180;-87
2022/09/03 08:47:11;;;;;;;4.53;2.72;;;21.90;99.90;;;;;;4993392;28;20183;-87
2022/09/03 08:49:57;;;;;;;4.03;3.00;;;21.90;99.90;;;;;;5008697;28;20270;-91
2022/09/03 08:52:41;;;;;;;3.60;2.70;;;21.80;99.90;;;;;;4993198;28;20277;-91
2022/09/03 08:55:16;;;;;;;2.65;2.35;;;21.80;99.90;;;;;;4993499;28;20183;-88
2022/09/03 08:58:08;;;;;;;3.60;2.78;;;21.90;99.90;;;;;;4992700;28;20189;-86
2022/09/03 09:00:49;;;;;;;4.00;2.70;;;22.00;99.90;;;;;;4976658;28;20561;-90
2022/09/03 09:03:27;;;;;;;6.50;2.67;;;22.30;99.90;;;;;;4995060;28;20183;-88
2022/09/03 09:06:22;;;;;;;2.90;2.70;;;22.40;99.90;;;;;;4994269;28;20191;-88
2022/09/03 09:09:09;;;;;;;4.30;2.85;;;22.40;99.90;;;;;;4993792;28;20220;-88
2022/09/03 09:11:47;;;;;;;3.97;2.85;;;22.60;99.90;;;;;;4993858;28;20207;-88
2022/09/03 09:14:36;;;;;;;4.53;2.90;;;22.80;99.90;;;;;;5010474;28;20198;-88
2022/09/03 09:17:30;;;;;;;3.10;2.90;;;22.80;99.90;;;;;;4993870;28;20246;-88
2022/09/03 09:20:21;;;;;;;2.90;2.70;;;22.90;99.90;;;;;;4993950;28;20222;-88
2022/09/03 09:22:53;;;;;;;3.05;2.60;;;22.90;99.90;;;;;;4994139;28;20176;-88
2022/09/03 09:25:21;;;;;;;2.60;2.40;;;23.10;99.90;;;;;;4993350;28;20179;-88
2022/09/03 09:28:02;;;;;;;2.53;2.33;;;23.10;99.90;;;;;;4997440;28;20217;-88
2022/09/03 09:31:03;;;;;;;2.92;2.45;;;23.20;99.90;;;;;;5019917;28;20207;-88
2022/09/03 09:33:31;;;;;;;2.90;2.55;;;23.10;99.90;;;;;;4995178;28;20182;-88
2022/09/03 09:36:04;;;;;;;2.50;2.22;;;23.20;99.90;;;;;;4993757;28;20199;-88
2022/09/03 09:38:35;;;;;;;2.67;2.47;;;23.20;99.90;;;;;;4993672;28;20227;-89
2022/09/03 09:41:15;;;;;;;3.35;2.50;;;23.20;99.90;;;;;;4993475;28;20203;-88
2022/09/03 09:43:42;;;;;;;3.05;2.60;;;23.30;99.90;;;;;;4993301;28;20339;-77
2022/09/03 09:46:12;;;;;;;4.15;2.50;;;23.20;99.90;;;;;;4993780;28;20183;-87
2022/09/03 09:48:48;;;;;;;2.80;2.60;;;23.20;99.90;;;;;;4993119;28;20184;-89
2022/09/03 09:51:27;;;;;;;3.05;2.83;;;23.20;99.90;;;;;;4993580;28;20203;-88
2022/09/03 09:54:20;;;;;;;4.18;2.70;;;23.20;99.90;;;;;;4993549;28;20183;-88
2022/09/03 09:57:01;;;;;;;2.92;2.63;;;23.10;99.90;;;;;;4993205;28;20183;-88
2022/09/03 09:59:27;;;;;;;2.53;2.33;;;23.20;99.90;;;;;;4973608;28;20215;-73
2022/09/03 10:02:08;;;;;;;4.63;2.90;;;23.20;99.90;;;;;;4986174;28;20281;-73
2022/09/03 10:04:34;;;;;;;2.90;2.60;;;23.30;99.90;;;;;;4994656;28;20179;-88
2022/09/03 10:07:23;;;;;;;2.90;2.70;;;23.40;99.90;;;;;;4993506;28;20210;-88
2022/09/03 10:10:02;;;;;;;2.80;2.60;;;23.40;99.90;;;;;;4993520;28;20187;-88
2022/09/03 10:12:45;;;;;;;2.83;2.60;;;23.50;99.90;;;;;;4990165;28;20200;-88
2022/09/03 10:15:46;;;;;;;2.67;2.47;;;23.60;99.90;;;;;;4979999;28;20183;-88
2022/09/03 10:18:38;;;;;;;2.95;2.70;;;23.70;99.90;;;;;;4998584;28;20187;-88
2022/09/03 10:21:19;;;;;;;2.72;2.53;;;23.80;99.90;;;;;;4985087;28;20210;-88
2022/09/03 10:24:23;;;;;;;2.75;2.50;;;23.80;99.90;;;;;;4993842;28;20187;-88
2022/09/03 10:26:57;;;;;;;3.03;2.80;;;23.80;99.90;;;;;;4991064;28;20182;-88
2022/09/03 10:29:40;;;;;;;6.40;3.05;;;23.80;99.90;;;;;;4989962;28;20176;-73
2022/09/03 10:32:09;;;;;;;3.33;2.88;;;23.90;99.90;;;;;;4990602;28;20208;-73
2022/09/03 10:34:41;;;;;;;3.15;2.58;;;23.90;99.90;;;;;;4994642;28;20183;-73
2022/09/03 10:37:33;;;;;;;3.15;2.70;;;24.00;99.90;;;;;;4994070;28;20172;-73
2022/09/03 10:40:08;;;;;;;3.28;2.60;;;24.10;99.90;;;;;;4995109;28;20227;-73
2022/09/03 10:42:55;;;;;;;2.50;2.30;;;24.20;99.90;;;;;;4994693;28;20202;-73
2022/09/03 10:45:52;;;;;;;3.20;2.88;;;24.20;99.90;;;;;;4993645;28;20206;-73
2022/09/03 10:48:39;;;;;;;3.45;2.92;;;24.20;99.90;;;;;;4985828;28;20713;-88
2022/09/03 10:51:10;;;;;;;3.13;2.83;;;24.10;99.90;;;;;;4994150;28;20214;-88
2022/09/03 10:53:48;;;;;;;4.95;3.10;;;24.00;99.90;;;;;;4976149;28;20179;-86
2022/09/03 10:56:48;;;;;;;2.75;2.50;;;23.80;99.90;;;;;;4984742;28;20207;-86
2022/09/03 10:59:44;;;;;;;3.15;2.58;;;23.80;99.90;;;;;;4994411;28;20199;-87
2022/09/03 11:02:28;;;;;;;2.83;2.63;;;23.50;99.90;;;;;;5004119;28;20682;-88
2022/09/03 11:05:16;;;;;;;2.33;2.22;;;23.50;99.90;;;;;;5000087;28;20214;-88
2022/09/03 11:08:05;;;;;;;2.50;2.30;;;23.40;99.90;;;;;;5012486;28;20185;-88
2022/09/03 11:10:33;;;;;;;4.22;2.75;;;23.30;99.90;;;;;;5002759;28;20175;-88
2022/09/03 11:13:12;;;;;;;2.90;2.50;;;23.10;99.90;;;;;;4996599;28;20179;-88
2022/09/03 11:15:52;;;;;;;2.80;2.60;;;23.00;99.90;;;;;;4996294;28;20190;-88
2022/09/03 11:18:32;;;;;;;3.10;2.80;;;22.90;99.90;;;;;;4996204;28;20294;-88
2022/09/03 11:21:03;;;;;;;3.85;3.25;;;22.90;99.90;;;;;;4996267;28;20203;-88
2022/09/03 11:23:36;;;;;;;2.75;2.55;;;22.80;99.90;;;;;;4997156;28;20280;-88
2022/09/03 11:26:07;;;;;;;3.03;2.83;;;22.70;99.90;;;;;;4997854;28;20207;-88
2022/09/03 11:29:01;;;;;;;3.47;3.00;;;22.60;99.90;;;;;;5002037;28;20163;-89
2022/09/03 11:32:06;;;;;;;3.67;2.97;;;22.50;99.90;;;;;;5006768;28;20215;-87
2022/09/03 11:35:11;;;;;;;6.40;2.85;;;22.10;99.90;;;;;;4996218;28;20241;-87
2022/09/03 11:37:51;;;;;;;3.85;3.00;;;21.20;99.90;;;;;;4984748;28;20195;-88
2022/09/03 11:40:18;;;;;;;3.47;2.10;;;20.40;99.90;;;;;;5000935;28;20203;-89
2022/09/03 11:42:46;;;;;;;4.07;2.20;;;19.70;99.90;;;;;;4996978;28;20191;-88
2022/09/03 11:45:36;;;;;;;3.10;1.35;;;19.40;99.90;;;;;;5002949;28;20175;-89
2022/09/03 11:48:36;;;;;;;2.80;1.10;;;19.10;99.90;;;;;;4989913;28;20171;-89
2022/09/03 11:51:17;;;;;;;1.30;1.20;;;19.00;99.90;;;;;;5004059;28;20208;-90
2022/09/03 11:54:12;;;;;;;2.78;1.38;;;19.00;99.90;;;;;;4991834;28;20290;-89
2022/09/03 11:57:14;;;;;;;2.47;1.50;;;19.10;99.90;;;;;;5012457;28;20206;-90
2022/09/03 11:59:43;;;;;;;1.48;1.38;;;19.10;99.90;;;;;;4958861;28;20285;-89
2022/09/03 12:02:27;;;;;;;2.67;1.20;;;19.10;99.90;;;;;;4996541;28;20202;-89
2022/09/03 12:05:29;;;;;;;2.03;1.40;;;19.10;99.90;;;;;;5008152;28;20215;-89
2022/09/03 12:08:29;;;;;;;2.72;1.50;;;19.20;99.90;;;;;;4985022;28;20261;-89
2022/09/03 12:10:58;;;;;;;2.13;1.30;;;19.30;99.90;;;;;;5001729;28;20279;-86
2022/09/03 12:13:53;;;;;;;2.25;1.30;;;19.30;99.90;;;;;;5002738;28;20192;-86
2022/09/03 12:16:41;;;;;;;1.40;1.17;;;19.30;99.90;;;;;;5007952;28;20184;-86
2022/09/03 12:19:31;;;;;;;3.40;1.17;;;19.30;99.90;;;;;;4985966;28;20294;-86
2022/09/03 12:21:57;;;;;;;3.90;1.20;;;19.20;99.90;;;;;;5017028;28;20218;-86
2022/09/03 12:24:30;;;;;;;2.53;1.30;;;19.20;99.90;;;;;;4985512;28;20179;-86
2022/09/03 12:26:57;;;;;;;3.35;1.20;;;19.20;99.90;;;;;;4997935;28;20214;-88
2022/09/03 12:29:26;;;;;;;2.30;1.20;;;19.20;99.90;;;;;;5012292;28;20270;-88
2022/09/03 12:31:55;;;;;;;2.13;1.23;;;19.10;99.90;;;;;;5010634;28;20203;-88
2022/09/03 12:34:22;;;;;;;1.58;1.23;;;19.20;99.90;;;;;;4992857;28;20187;-88
2022/09/03 12:36:53;;;;;;;3.50;1.30;;;19.10;99.90;;;;;;5008053;28;20198;-87
2022/09/03 12:39:27;;;;;;;1.77;1.30;;;19.10;99.90;;;;;;5003478;28;20229;-88
2022/09/03 12:42:03;;;;;;;2.58;1.60;;;19.10;99.90;;;;;;4989553;28;20200;-87
2022/09/03 12:44:40;;;;;;;2.13;1.42;;;19.00;99.90;;;;;;4992990;28;20689;-86
2022/09/03 12:47:16;;;;;;;2.10;1.30;;;19.00;99.90;;;;;;4998427;28;20296;-86
2022/09/03 12:49:45;;;;;;;1.90;1.30;;;19.00;99.90;;;;;;5009599;28;20198;-87
2022/09/03 12:52:26;;;;;;;1.58;1.30;;;18.90;99.90;;;;;;4993959;28;20211;-86
2022/09/03 12:54:57;;;;;;;2.30;1.35;;;19.00;99.90;;;;;;4998444;28;20210;-86
2022/09/03 12:57:33;;;;;;;1.73;1.10;;;19.10;99.90;;;;;;4994379;28;20183;-88
2022/09/03 13:00:07;;;;;;;2.60;1.33;;;19.20;99.90;;;;;;4994142;28;20289;-87
2022/09/03 13:02:58;;;;;;;1.70;1.10;;;19.30;99.90;;;;;;5008933;28;20195;-86
2022/09/03 13:05:33;;;;;;;1.77;1.45;;;19.40;99.90;;;;;;4993122;28;20192;-88
2022/09/03 13:08:02;;;;;;;4.05;1.55;;;19.50;99.90;;;;;;4998427;28;20175;-87
2022/09/03 13:10:35;;;;;;;2.55;1.25;;;19.90;99.90;;;;;;5009008;28;20188;-87
2022/09/03 13:13:23;;;;;;;2.08;1.20;;;20.40;99.90;;;;;;4990657;28;20179;-88
2022/09/03 13:16:07;;;;;;;2.05;1.30;;;20.70;99.90;;;;;;4995179;28;20186;-88
2022/09/03 13:19:01;;;;;;;2.00;1.50;;;21.10;99.90;;;;;;4991428;28;20180;-87
2022/09/03 13:21:27;;;;;;;3.35;1.55;;;21.20;99.90;;;;;;4992384;28;20207;-87
2022/09/03 13:24:08;;;;;;;1.98;1.40;;;21.30;99.90;;;;;;5008286;28;20171;-88
2022/09/03 13:26:52;;;;;;;2.17;1.40;;;21.30;99.90;;;;;;4990718;28;20186;-87
2022/09/03 13:29:52;;;;;;;1.60;1.35;;;21.50;99.90;;;;;;5016315;28;20179;-94